sensor_id;sensor_type;location;lat;lon;timestamp;pressure;altitude;pressure_sealevel;temperature;humidity
76594;BME280;65482;50.240;14.302;2024-01-30T00:01:24;101439.97;;;-0.47;73.88
76594;BME280;65482;50.240;14.302;2024-01-30T00:03:50;101438.94;;;-0.42;74.04
76594;BME280;65482;50.240;14.302;2024-01-30T00:06:18;101438.03;;;-0.41;73.64
76594;BME280;65482;50.240;14.302;2024-01-30T00:08:46;101440.56;;;-0.37;73.68
76594;BME280;65482;50.240;14.302;2024-01-30T00:11:14;101437.19;;;-0.41;73.86
76594;BME280;65482;50.240;14.302;2024-01-30T00:13:40;101441.56;;;-0.43;73.72
76594;BME280;65482;50.240;14.302;2024-01-30T00:16:06;101433.75;;;-0.42;73.78
76594;BME280;65482;50.240;14.302;2024-01-30T00:18:32;101435.47;;;-0.42;73.43
76594;BME280;65482;50.240;14.302;2024-01-30T00:20:57;101428.63;;;-0.45;73.41
76594;BME280;65482;50.240;14.302;2024-01-30T00:23:23;101432.03;;;-0.43;73.73
76594;BME280;65482;50.240;14.302;2024-01-30T00:25:48;101424.22;;;-0.41;73.21
76594;BME280;65482;50.240;14.302;2024-01-30T00:28:14;101430.22;;;-0.39;73.31
76594;BME280;65482;50.240;14.302;2024-01-30T00:30:39;101427.66;;;-0.41;73.37
76594;BME280;65482;50.240;14.302;2024-01-30T00:33:05;101436.25;;;-0.38;73.35
76594;BME280;65482;50.240;14.302;2024-01-30T00:35:30;101426.63;;;-0.35;73.74
76594;BME280;65482;50.240;14.302;2024-01-30T00:37:56;101431.69;;;-0.30;73.68
76594;BME280;65482;50.240;14.302;2024-01-30T00:40:22;101435.16;;;-0.30;73.57
76594;BME280;65482;50.240;14.302;2024-01-30T00:42:48;101434.28;;;-0.30;73.83
76594;BME280;65482;50.240;14.302;2024-01-30T00:45:14;101427.47;;;-0.34;73.20
76594;BME280;65482;50.240;14.302;2024-01-30T00:47:40;101419.00;;;-0.39;72.74
76594;BME280;65482;50.240;14.302;2024-01-30T00:50:06;101420.91;;;-0.46;73.34
76594;BME280;65482;50.240;14.302;2024-01-30T00:52:32;101420.97;;;-0.48;73.49
76594;BME280;65482;50.240;14.302;2024-01-30T00:54:59;101410.75;;;-0.54;74.23
76594;BME280;65482;50.240;14.302;2024-01-30T00:57:24;101403.84;;;-0.53;74.38
76594;BME280;65482;50.240;14.302;2024-01-30T00:59:50;101409.81;;;-0.51;73.44
76594;BME280;65482;50.240;14.302;2024-01-30T01:02:16;101403.31;;;-0.66;73.79
76594;BME280;65482;50.240;14.302;2024-01-30T01:04:43;101406.09;;;-0.74;74.04
76594;BME280;65482;50.240;14.302;2024-01-30T01:07:10;101405.28;;;-0.76;74.46
76594;BME280;65482;50.240;14.302;2024-01-30T01:09:36;101412.38;;;-0.81;74.77
76594;BME280;65482;50.240;14.302;2024-01-30T01:12:02;101412.19;;;-0.75;75.00
76594;BME280;65482;50.240;14.302;2024-01-30T01:14:28;101413.13;;;-0.77;74.88
76594;BME280;65482;50.240;14.302;2024-01-30T01:16:53;101421.63;;;-0.72;75.44
76594;BME280;65482;50.240;14.302;2024-01-30T01:19:19;101416.28;;;-0.66;74.84
76594;BME280;65482;50.240;14.302;2024-01-30T01:21:45;101416.22;;;-0.65;75.10
76594;BME280;65482;50.240;14.302;2024-01-30T01:24:10;101413.66;;;-0.65;74.85
76594;BME280;65482;50.240;14.302;2024-01-30T01:26:36;101413.69;;;-0.66;74.96
76594;BME280;65482;50.240;14.302;2024-01-30T01:29:01;101419.78;;;-0.67;75.14
76594;BME280;65482;50.240;14.302;2024-01-30T01:31:27;101416.41;;;-0.71;74.85
76594;BME280;65482;50.240;14.302;2024-01-30T01:33:54;101423.19;;;-0.67;74.90
76594;BME280;65482;50.240;14.302;2024-01-30T01:36:20;101416.28;;;-0.66;74.79
76594;BME280;65482;50.240;14.302;2024-01-30T01:38:46;101421.41;;;-0.65;75.18
76594;BME280;65482;50.240;14.302;2024-01-30T01:41:12;101416.19;;;-0.63;74.65
76594;BME280;65482;50.240;14.302;2024-01-30T01:43:37;101420.06;;;-0.47;75.05
76594;BME280;65482;50.240;14.302;2024-01-30T01:46:05;101426.00;;;-0.43;74.63
76594;BME280;65482;50.240;14.302;2024-01-30T01:48:32;101417.50;;;-0.48;74.66
76594;BME280;65482;50.240;14.302;2024-01-30T01:50:58;101410.59;;;-0.48;74.59
76594;BME280;65482;50.240;14.302;2024-01-30T01:53:24;101413.41;;;-0.55;75.26
76594;BME280;65482;50.240;14.302;2024-01-30T01:55:50;101414.31;;;-0.58;74.91
76594;BME280;65482;50.240;14.302;2024-01-30T01:58:19;101414.28;;;-0.56;75.22
76594;BME280;65482;50.240;14.302;2024-01-30T02:00:46;101407.31;;;-0.54;75.40
76594;BME280;65482;50.240;14.302;2024-01-30T02:03:13;101401.28;;;-0.55;75.12
76594;BME280;65482;50.240;14.302;2024-01-30T02:05:40;101407.28;;;-0.53;75.17
76594;BME280;65482;50.240;14.302;2024-01-30T02:08:08;101402.06;;;-0.51;74.94
76594;BME280;65482;50.240;14.302;2024-01-30T02:10:33;101403.06;;;-0.57;74.87
76594;BME280;65482;50.240;14.302;2024-01-30T02:12:59;101413.34;;;-0.54;74.90
76594;BME280;65482;50.240;14.302;2024-01-30T02:15:25;101408.22;;;-0.55;74.79
76594;BME280;65482;50.240;14.302;2024-01-30T02:17:50;101402.16;;;-0.56;75.33
76594;BME280;65482;50.240;14.302;2024-01-30T02:20:16;101405.47;;;-0.51;75.27
76594;BME280;65482;50.240;14.302;2024-01-30T02:22:42;101397.78;;;-0.54;74.56
76594;BME280;65482;50.240;14.302;2024-01-30T02:25:08;101403.94;;;-0.58;75.14
76594;BME280;65482;50.240;14.302;2024-01-30T02:27:34;101404.09;;;-0.63;74.88
76594;BME280;65482;50.240;14.302;2024-01-30T02:29:59;101401.59;;;-0.66;75.12
76594;BME280;65482;50.240;14.302;2024-01-30T02:32:25;101400.81;;;-0.69;75.01
76594;BME280;65482;50.240;14.302;2024-01-30T02:34:50;101396.69;;;-0.76;75.14
76594;BME280;65482;50.240;14.302;2024-01-30T02:37:16;101404.28;;;-0.70;75.51
76594;BME280;65482;50.240;14.302;2024-01-30T02:39:42;101400.09;;;-0.74;75.34
76594;BME280;65482;50.240;14.302;2024-01-30T02:42:07;101396.63;;;-0.73;75.23
76594;BME280;65482;50.240;14.302;2024-01-30T02:44:33;101401.03;;;-0.77;74.90
76594;BME280;65482;50.240;14.302;2024-01-30T02:46:58;101394.94;;;-0.76;75.24
76594;BME280;65482;50.240;14.302;2024-01-30T02:49:24;101393.06;;;-0.71;75.59
76594;BME280;65482;50.240;14.302;2024-01-30T02:51:49;101391.28;;;-0.69;75.45
76594;BME280;65482;50.240;14.302;2024-01-30T02:54:16;101395.66;;;-0.71;75.42
76594;BME280;65482;50.240;14.302;2024-01-30T02:56:41;101395.63;;;-0.69;75.24
76594;BME280;65482;50.240;14.302;2024-01-30T02:59:07;101391.53;;;-0.78;75.42
76594;BME280;65482;50.240;14.302;2024-01-30T03:01:32;101383.72;;;-0.76;75.46
76594;BME280;65482;50.240;14.302;2024-01-30T03:03:58;101388.28;;;-0.85;75.50
76594;BME280;65482;50.240;14.302;2024-01-30T03:06:23;101383.94;;;-0.84;74.91
76594;BME280;65482;50.240;14.302;2024-01-30T03:08:49;101372.00;;;-0.90;75.38
76594;BME280;65482;50.240;14.302;2024-01-30T03:11:15;101376.19;;;-0.86;75.45
76594;BME280;65482;50.240;14.302;2024-01-30T03:13:40;101373.69;;;-0.89;75.37
76594;BME280;65482;50.240;14.302;2024-01-30T03:16:06;101375.38;;;-0.88;76.13
76594;BME280;65482;50.240;14.302;2024-01-30T03:18:32;101379.69;;;-0.87;75.80
76594;BME280;65482;50.240;14.302;2024-01-30T03:20:58;101371.91;;;-0.87;76.22
76594;BME280;65482;50.240;14.302;2024-01-30T03:23:23;101369.38;;;-0.88;76.19
76594;BME280;65482;50.240;14.302;2024-01-30T03:25:49;101367.75;;;-0.92;76.18
76594;BME280;65482;50.240;14.302;2024-01-30T03:28:14;101372.31;;;-1.02;75.90
76594;BME280;65482;50.240;14.302;2024-01-30T03:30:40;101366.34;;;-1.04;76.17
76594;BME280;65482;50.240;14.302;2024-01-30T03:33:05;101362.25;;;-1.13;76.60
76594;BME280;65482;50.240;14.302;2024-01-30T03:35:31;101358.66;;;-1.07;76.73
76594;BME280;65482;50.240;14.302;2024-01-30T03:37:56;101358.53;;;-1.03;76.27
76594;BME280;65482;50.240;14.302;2024-01-30T03:40:22;101354.22;;;-1.04;76.32
76594;BME280;65482;50.240;14.302;2024-01-30T03:42:47;101354.19;;;-1.02;75.89
76594;BME280;65482;50.240;14.302;2024-01-30T03:45:13;101354.16;;;-1.01;75.84
76594;BME280;65482;50.240;14.302;2024-01-30T03:47:39;101351.41;;;-0.94;75.88
76594;BME280;65482;50.240;14.302;2024-01-30T03:50:04;101357.31;;;-0.89;75.81
76594;BME280;65482;50.240;14.302;2024-01-30T03:52:30;101357.34;;;-0.91;75.31
76594;BME280;65482;50.240;14.302;2024-01-30T03:54:55;101359.00;;;-0.88;75.39
76594;BME280;65482;50.240;14.302;2024-01-30T03:57:21;101358.19;;;-0.90;75.36
76594;BME280;65482;50.240;14.302;2024-01-30T03:59:47;101353.78;;;-0.87;74.87
76594;BME280;65482;50.240;14.302;2024-01-30T04:02:12;101356.38;;;-0.87;75.25
76594;BME280;65482;50.240;14.302;2024-01-30T04:04:38;101355.44;;;-0.84;75.00
76594;BME280;65482;50.240;14.302;2024-01-30T04:07:04;101352.06;;;-0.88;75.19
76594;BME280;65482;50.240;14.302;2024-01-30T04:09:29;101355.53;;;-0.87;74.88
76594;BME280;65482;50.240;14.302;2024-01-30T04:11:55;101358.97;;;-0.87;74.63
76594;BME280;65482;50.240;14.302;2024-01-30T04:14:20;101359.81;;;-0.86;74.90
76594;BME280;65482;50.240;14.302;2024-01-30T04:16:46;101358.88;;;-0.84;75.19
76594;BME280;65482;50.240;14.302;2024-01-30T04:19:11;101361.47;;;-0.84;75.08
76594;BME280;65482;50.240;14.302;2024-01-30T04:21:37;101356.19;;;-0.81;74.96
76594;BME280;65482;50.240;14.302;2024-01-30T04:24:03;101352.72;;;-0.79;74.64
76594;BME280;65482;50.240;14.302;2024-01-30T04:26:28;101359.63;;;-0.80;74.86
76594;BME280;65482;50.240;14.302;2024-01-30T04:28:54;101364.88;;;-0.82;74.75
76594;BME280;65482;50.240;14.302;2024-01-30T04:31:19;101364.88;;;-0.82;74.64
76594;BME280;65482;50.240;14.302;2024-01-30T04:33:45;101367.72;;;-0.91;74.78
76594;BME280;65482;50.240;14.302;2024-01-30T04:36:10;101367.75;;;-0.92;74.44
76594;BME280;65482;50.240;14.302;2024-01-30T04:38:37;101368.97;;;-1.06;74.81
76594;BME280;65482;50.240;14.302;2024-01-30T04:41:03;101363.03;;;-1.09;75.35
76594;BME280;65482;50.240;14.302;2024-01-30T04:43:29;101370.75;;;-1.08;75.55
76594;BME280;65482;50.240;14.302;2024-01-30T04:45:55;101370.91;;;-1.14;75.66
76594;BME280;65482;50.240;14.302;2024-01-30T04:48:21;101369.28;;;-1.18;75.55
76594;BME280;65482;50.240;14.302;2024-01-30T04:50:46;101366.63;;;-1.15;75.50
76594;BME280;65482;50.240;14.302;2024-01-30T04:53:12;101367.59;;;-1.19;76.03
76594;BME280;65482;50.240;14.302;2024-01-30T04:55:37;101371.81;;;-1.15;75.84
76594;BME280;65482;50.240;14.302;2024-01-30T04:58:03;101372.63;;;-1.13;76.29
76594;BME280;65482;50.240;14.302;2024-01-30T05:00:28;101376.81;;;-1.09;76.21
76594;BME280;65482;50.240;14.302;2024-01-30T05:02:57;101373.22;;;-1.03;75.61
76594;BME280;65482;50.240;14.302;2024-01-30T05:05:23;101371.38;;;-1.00;75.68
76594;BME280;65482;50.240;14.302;2024-01-30T05:07:49;101373.03;;;-0.95;75.47
76594;BME280;65482;50.240;14.302;2024-01-30T05:10:14;101373.88;;;-0.95;75.06
76594;BME280;65482;50.240;14.302;2024-01-30T05:12:40;101378.44;;;-1.05;75.08
76594;BME280;65482;50.240;14.302;2024-01-30T05:15:06;101373.22;;;-1.03;74.91
76594;BME280;65482;50.240;14.302;2024-01-30T05:17:32;101377.66;;;-1.08;74.92
76594;BME280;65482;50.240;14.302;2024-01-30T05:19:58;101378.59;;;-1.11;75.56
76594;BME280;65482;50.240;14.302;2024-01-30T05:22:24;101381.28;;;-1.15;75.32
76594;BME280;65482;50.240;14.302;2024-01-30T05:24:49;101379.59;;;-1.15;75.41
76594;BME280;65482;50.240;14.302;2024-01-30T05:27:15;101381.06;;;-1.06;75.94
76594;BME280;65482;50.240;14.302;2024-01-30T05:29:41;101375.72;;;-1.00;75.20
76594;BME280;65482;50.240;14.302;2024-01-30T05:32:06;101380.94;;;-1.02;75.45
76594;BME280;65482;50.240;14.302;2024-01-30T05:34:32;101386.06;;;-0.98;75.60
76594;BME280;65482;50.240;14.302;2024-01-30T05:36:58;101375.66;;;-0.97;75.54
76594;BME280;65482;50.240;14.302;2024-01-30T05:39:23;101371.25;;;-0.93;75.96
76594;BME280;65482;50.240;14.302;2024-01-30T05:41:49;101372.06;;;-0.91;75.63
76594;BME280;65482;50.240;14.302;2024-01-30T05:44:14;101375.38;;;-0.88;76.03
76594;BME280;65482;50.240;14.302;2024-01-30T05:46:40;101370.28;;;-0.89;75.98
76594;BME280;65482;50.240;14.302;2024-01-30T05:49:06;101376.19;;;-0.86;75.58
76594;BME280;65482;50.240;14.302;2024-01-30T05:51:31;101376.06;;;-0.79;75.85
76594;BME280;65482;50.240;14.302;2024-01-30T05:53:57;101370.72;;;-0.75;75.93
76594;BME280;65482;50.240;14.302;2024-01-30T05:56:22;101361.25;;;-0.76;75.37
76594;BME280;65482;50.240;14.302;2024-01-30T05:58:48;101363.03;;;-0.78;75.53
76594;BME280;65482;50.240;14.302;2024-01-30T06:01:15;101375.06;;;-0.75;75.25
76594;BME280;65482;50.240;14.302;2024-01-30T06:03:41;101369.81;;;-0.74;75.12
76594;BME280;65482;50.240;14.302;2024-01-30T06:06:08;101375.00;;;-0.74;75.07
76594;BME280;65482;50.240;14.302;2024-01-30T06:08:34;101364.72;;;-0.75;75.11
76594;BME280;65482;50.240;14.302;2024-01-30T06:11:00;101380.34;;;-0.78;75.11
76594;BME280;65482;50.240;14.302;2024-01-30T06:13:26;101372.56;;;-0.78;74.96
76594;BME280;65482;50.240;14.302;2024-01-30T06:15:52;101375.16;;;-0.78;75.50
76594;BME280;65482;50.240;14.302;2024-01-30T06:18:18;101374.28;;;-0.77;75.66
76594;BME280;65482;50.240;14.302;2024-01-30T06:20:43;101376.91;;;-0.79;75.20
76594;BME280;65482;50.240;14.302;2024-01-30T06:23:09;101375.94;;;-0.76;75.49
76594;BME280;65482;50.240;14.302;2024-01-30T06:25:35;101379.31;;;-0.73;75.14
76594;BME280;65482;50.240;14.302;2024-01-30T06:28:01;101382.97;;;-0.80;75.68
76594;BME280;65482;50.240;14.302;2024-01-30T06:30:26;101382.16;;;-0.82;75.54
76594;BME280;65482;50.240;14.302;2024-01-30T06:32:52;101384.75;;;-0.82;75.79
76594;BME280;65482;50.240;14.302;2024-01-30T06:35:17;101382.16;;;-0.82;75.56
76594;BME280;65482;50.240;14.302;2024-01-30T06:37:43;101386.34;;;-0.78;75.44
76594;BME280;65482;50.240;14.302;2024-01-30T06:40:09;101390.63;;;-0.75;75.95
76594;BME280;65482;50.240;14.302;2024-01-30T06:42:35;101387.91;;;-0.71;76.06
76594;BME280;65482;50.240;14.302;2024-01-30T06:45:00;101393.84;;;-0.67;75.63
76594;BME280;65482;50.240;14.302;2024-01-30T06:47:26;101391.16;;;-0.64;75.87
76594;BME280;65482;50.240;14.302;2024-01-30T06:49:51;101390.13;;;-0.58;75.78
76594;BME280;65482;50.240;14.302;2024-01-30T06:52:17;101395.16;;;-0.52;75.58
76594;BME280;65482;50.240;14.302;2024-01-30T06:54:45;101389.84;;;-0.48;75.39
76594;BME280;65482;50.240;14.302;2024-01-30T06:57:14;101391.56;;;-0.48;75.11
76594;BME280;65482;50.240;14.302;2024-01-30T06:59:42;101403.63;;;-0.46;75.22
76594;BME280;65482;50.240;14.302;2024-01-30T07:02:10;101389.78;;;-0.46;75.25
76594;BME280;65482;50.240;14.302;2024-01-30T07:04:36;101394.06;;;-0.44;74.86
76594;BME280;65482;50.240;14.302;2024-01-30T07:07:03;101401.72;;;-0.41;74.77
76594;BME280;65482;50.240;14.302;2024-01-30T07:09:30;101399.00;;;-0.36;75.27
76594;BME280;65482;50.240;14.302;2024-01-30T07:11:56;101397.31;;;-0.37;74.72
76594;BME280;65482;50.240;14.302;2024-01-30T07:14:24;101402.38;;;-0.34;74.83
76594;BME280;65482;50.240;14.302;2024-01-30T07:16:50;101405.91;;;-0.35;74.64
76594;BME280;65482;50.240;14.302;2024-01-30T07:19:16;101399.75;;;-0.32;74.65
76594;BME280;65482;50.240;14.302;2024-01-30T07:21:42;101402.34;;;-0.32;74.50
76594;BME280;65482;50.240;14.302;2024-01-30T07:24:07;101406.63;;;-0.30;74.51
76594;BME280;65482;50.240;14.302;2024-01-30T07:26:33;101407.50;;;-0.31;74.08
76594;BME280;65482;50.240;14.302;2024-01-30T07:28:58;101399.56;;;-0.26;74.25
76594;BME280;65482;50.240;14.302;2024-01-30T07:31:24;101413.31;;;-0.23;73.38
76594;BME280;65482;50.240;14.302;2024-01-30T07:33:50;101408.06;;;-0.19;73.51
76594;BME280;65482;50.240;14.302;2024-01-30T07:36:16;101405.34;;;-0.16;73.40
76594;BME280;65482;50.240;14.302;2024-01-30T07:38:41;101412.22;;;-0.14;73.40
76594;BME280;65482;50.240;14.302;2024-01-30T07:41:07;101406.97;;;-0.12;73.26
76594;BME280;65482;50.240;14.302;2024-01-30T07:43:33;101408.72;;;-0.13;73.47
76594;BME280;65482;50.240;14.302;2024-01-30T07:45:59;101404.25;;;-0.08;73.74
76594;BME280;65482;50.240;14.302;2024-01-30T07:48:26;101402.31;;;-0.01;73.44
76594;BME280;65482;50.240;14.302;2024-01-30T07:50:52;101403.91;;;0.03;72.87
76594;BME280;65482;50.240;14.302;2024-01-30T07:53:18;101405.50;;;0.07;73.17
76594;BME280;65482;50.240;14.302;2024-01-30T07:55:44;101405.63;;;0.04;72.59
76594;BME280;65482;50.240;14.302;2024-01-30T07:58:12;101406.63;;;0.00;72.57
76594;BME280;65482;50.240;14.302;2024-01-30T08:00:40;101406.28;;;-0.19;73.20
76594;BME280;65482;50.240;14.302;2024-01-30T08:03:05;101413.09;;;-0.15;74.06
76594;BME280;65482;50.240;14.302;2024-01-30T08:05:31;101407.88;;;-0.13;73.56
76594;BME280;65482;50.240;14.302;2024-01-30T08:07:56;101412.09;;;-0.11;73.37
76594;BME280;65482;50.240;14.302;2024-01-30T08:10:22;101412.03;;;-0.08;73.16
76594;BME280;65482;50.240;14.302;2024-01-30T08:12:48;101408.47;;;-0.05;73.32
76594;BME280;65482;50.240;14.302;2024-01-30T08:15:13;101405.66;;;0.03;73.04
76594;BME280;65482;50.240;14.302;2024-01-30T08:17:39;101407.22;;;0.08;72.58
76594;BME280;65482;50.240;14.302;2024-01-30T08:20:06;101404.56;;;0.10;72.61
76594;BME280;65482;50.240;14.302;2024-01-30T08:22:33;101406.41;;;0.06;72.18
76594;BME280;65482;50.240;14.302;2024-01-30T08:24:59;101404.63;;;0.08;72.17
76594;BME280;65482;50.240;14.302;2024-01-30T08:27:24;101414.09;;;0.09;72.39
76594;BME280;65482;50.240;14.302;2024-01-30T08:29:51;101413.94;;;0.14;72.46
76594;BME280;65482;50.240;14.302;2024-01-30T08:32:16;101407.94;;;0.12;72.44
76594;BME280;65482;50.240;14.302;2024-01-30T08:35:10;101405.66;;;0.03;72.02
76594;BME280;65482;50.240;14.302;2024-01-30T08:38:02;101406.41;;;0.06;71.81
76594;BME280;65482;50.240;14.302;2024-01-30T08:43:50;101404.03;;;0.00;72.34
76594;BME280;65482;50.240;14.302;2024-01-30T08:50:42;101397.84;;;0.04;72.54
76594;BME280;65482;50.240;14.302;2024-01-30T08:53:25;101406.22;;;0.12;72.14
76594;BME280;65482;50.240;14.302;2024-01-30T08:55:51;101397.03;;;0.02;72.11
76594;BME280;65482;50.240;14.302;2024-01-30T08:58:16;101396.09;;;0.05;72.57
76594;BME280;65482;50.240;14.302;2024-01-30T09:00:44;101396.72;;;0.11;72.59
76594;BME280;65482;50.240;14.302;2024-01-30T09:03:10;101396.69;;;0.13;72.23
76594;BME280;65482;50.240;14.302;2024-01-30T09:05:35;101392.16;;;0.19;71.81
76594;BME280;65482;50.240;14.302;2024-01-30T09:08:01;101393.28;;;0.11;71.52
76594;BME280;65482;50.240;14.302;2024-01-30T09:10:26;101396.53;;;0.17;71.84
76594;BME280;65482;50.240;14.302;2024-01-30T09:12:52;101393.44;;;0.06;71.68
76594;BME280;65482;50.240;14.302;2024-01-30T09:15:18;101392.19;;;-0.10;72.01
76594;BME280;65482;50.240;14.302;2024-01-30T09:17:44;101403.53;;;-0.13;72.52
76594;BME280;65482;50.240;14.302;2024-01-30T09:20:13;101402.69;;;-0.13;71.93
76594;BME280;65482;50.240;14.302;2024-01-30T09:22:39;101405.78;;;-0.02;72.17
76594;BME280;65482;50.240;14.302;2024-01-30T09:25:05;101411.69;;;0.03;71.49
76594;BME280;65482;50.240;14.302;2024-01-30T09:27:32;101409.03;;;0.06;71.85
76594;BME280;65482;50.240;14.302;2024-01-30T09:29:58;101411.41;;;0.12;71.69
76594;BME280;65482;50.240;14.302;2024-01-30T09:32:23;101405.44;;;0.10;71.47
76594;BME280;65482;50.240;14.302;2024-01-30T09:34:50;101409.75;;;0.10;71.13
76594;BME280;65482;50.240;14.302;2024-01-30T09:48:15;101409.31;;;0.24;70.54
76594;BME280;65482;50.240;14.302;2024-01-30T09:50:52;101415.19;;;0.30;69.79
76594;BME280;65482;50.240;14.302;2024-01-30T09:53:30;101413.53;;;0.28;69.38
76594;BME280;65482;50.240;14.302;2024-01-30T09:55:57;101410.81;;;0.32;70.11
76594;BME280;65482;50.240;14.302;2024-01-30T09:58:23;101407.97;;;0.40;70.16
76594;BME280;65482;50.240;14.302;2024-01-30T10:00:49;101417.25;;;0.47;70.21
76594;BME280;65482;50.240;14.302;2024-01-30T10:03:22;101406.44;;;0.59;69.45
76594;BME280;65482;50.240;14.302;2024-01-30T10:05:51;101408.88;;;0.66;69.73
76594;BME280;65482;50.240;14.302;2024-01-30T10:08:18;101400.72;;;0.76;69.50
76594;BME280;65482;50.240;14.302;2024-01-30T10:10:50;101402.06;;;0.88;69.13
76594;BME280;65482;50.240;14.302;2024-01-30T10:18:22;101400.41;;;1.11;68.63
76594;BME280;65482;50.240;14.302;2024-01-30T10:20:59;101387.94;;;1.21;68.07
76594;BME280;65482;50.240;14.302;2024-01-30T10:23:24;101391.38;;;1.21;67.87
76594;BME280;65482;50.240;14.302;2024-01-30T10:25:53;101380.91;;;1.23;68.03
76594;BME280;65482;50.240;14.302;2024-01-30T10:28:19;101386.13;;;1.23;67.62
76594;BME280;65482;50.240;14.302;2024-01-30T10:30:45;101387.88;;;1.22;68.14
76594;BME280;65482;50.240;14.302;2024-01-30T10:33:11;101381.53;;;1.29;67.27
76594;BME280;65482;50.240;14.302;2024-01-30T10:35:37;101373.75;;;1.29;67.07
76594;BME280;65482;50.240;14.302;2024-01-30T10:38:03;101378.06;;;1.30;67.47
76594;BME280;65482;50.240;14.302;2024-01-30T10:40:35;101369.41;;;1.30;67.59
76594;BME280;65482;50.240;14.302;2024-01-30T10:43:04;101372.94;;;1.27;67.79
76594;BME280;65482;50.240;14.302;2024-01-30T10:45:34;101370.34;;;1.27;68.03
76594;BME280;65482;50.240;14.302;2024-01-30T10:48:03;101367.81;;;1.26;67.69
76594;BME280;65482;50.240;14.302;2024-01-30T10:50:32;101367.09;;;1.22;68.04
76594;BME280;65482;50.240;14.302;2024-01-30T10:52:59;101370.34;;;1.27;67.84
76594;BME280;65482;50.240;14.302;2024-01-30T10:55:28;101373.41;;;1.15;67.95
76594;BME280;65482;50.240;14.302;2024-01-30T10:57:54;101366.16;;;1.23;68.26
76594;BME280;65482;50.240;14.302;2024-01-30T11:00:20;101370.69;;;1.18;67.98
76594;BME280;65482;50.240;14.302;2024-01-30T11:03:03;101365.38;;;1.21;68.19
76594;BME280;65482;50.240;14.302;2024-01-30T11:05:30;101361.84;;;1.24;68.40
76594;BME280;65482;50.240;14.302;2024-01-30T11:07:55;101361.75;;;1.25;68.67
76594;BME280;65482;50.240;14.302;2024-01-30T11:10:24;101356.78;;;1.19;68.68
76594;BME280;65482;50.240;14.302;2024-01-30T11:12:50;101362.16;;;1.14;68.67
76594;BME280;65482;50.240;14.302;2024-01-30T11:15:17;101358.53;;;1.18;68.63
76594;BME280;65482;50.240;14.302;2024-01-30T11:22:46;101349.78;;;1.21;69.10
76594;BME280;65482;50.240;14.302;2024-01-30T11:25:29;101348.47;;;1.33;68.71
76594;BME280;65482;50.240;14.302;2024-01-30T11:27:56;101343.84;;;1.41;68.34
76594;BME280;65482;50.240;14.302;2024-01-30T11:30:25;101342.81;;;1.45;68.08
76594;BME280;65482;50.240;14.302;2024-01-30T11:33:06;101345.56;;;1.42;68.05
76594;BME280;65482;50.240;14.302;2024-01-30T11:35:33;101347.31;;;1.42;68.20
76594;BME280;65482;50.240;14.302;2024-01-30T11:37:59;101336.78;;;1.45;68.09
76594;BME280;65482;50.240;14.302;2024-01-30T11:40:30;101326.28;;;1.48;68.24
76594;BME280;65482;50.240;14.302;2024-01-30T11:42:56;101327.66;;;1.56;67.67
76594;BME280;65482;50.240;14.302;2024-01-30T11:45:23;101327.47;;;1.61;67.31
76594;BME280;65482;50.240;14.302;2024-01-30T11:47:49;101323.16;;;1.62;67.37
76594;BME280;65482;50.240;14.302;2024-01-30T11:50:14;101325.03;;;1.58;67.31
76594;BME280;65482;50.240;14.302;2024-01-30T11:52:40;101321.63;;;1.56;67.26
76594;BME280;65482;50.240;14.302;2024-01-30T11:55:07;101314.00;;;1.51;67.16
76594;BME280;65482;50.240;14.302;2024-01-30T11:57:33;101315.69;;;1.52;67.80
76594;BME280;65482;50.240;14.302;2024-01-30T12:00:13;101308.81;;;1.51;67.44
76594;BME280;65482;50.240;14.302;2024-01-30T12:02:40;101299.00;;;1.58;67.68
76594;BME280;65482;50.240;14.302;2024-01-30T12:05:06;101295.44;;;1.61;67.78
76594;BME280;65482;50.240;14.302;2024-01-30T12:07:33;101296.16;;;1.64;67.91
76594;BME280;65482;50.240;14.302;2024-01-30T12:09:58;101296.16;;;1.64;67.15
76594;BME280;65482;50.240;14.302;2024-01-30T12:12:25;101293.31;;;1.70;67.60
76594;BME280;65482;50.240;14.302;2024-01-30T12:14:52;101285.31;;;1.75;67.61
76594;BME280;65482;50.240;14.302;2024-01-30T12:17:31;101289.75;;;1.73;68.51
76594;BME280;65482;50.240;14.302;2024-01-30T12:20:07;101292.09;;;1.79;67.83
76594;BME280;65482;50.240;14.302;2024-01-30T12:22:37;101283.28;;;1.83;67.45
76594;BME280;65482;50.240;14.302;2024-01-30T12:25:11;101280.69;;;1.83;67.25
76594;BME280;65482;50.240;14.302;2024-01-30T12:27:38;101280.50;;;1.88;67.17
76594;BME280;65482;50.240;14.302;2024-01-30T12:30:07;101287.81;;;1.78;67.71
76594;BME280;65482;50.240;14.302;2024-01-30T12:32:36;101289.09;;;1.68;67.68
76594;BME280;65482;50.240;14.302;2024-01-30T12:35:15;101291.47;;;1.74;68.14
76594;BME280;65482;50.240;14.302;2024-01-30T12:37:48;101273.88;;;1.79;67.86
76594;BME280;65482;50.240;14.302;2024-01-30T12:40:14;101279.41;;;1.93;67.30
76594;BME280;65482;50.240;14.302;2024-01-30T12:42:40;101278.78;;;1.87;67.96
76594;BME280;65482;50.240;14.302;2024-01-30T12:45:08;101281.63;;;2.03;67.30
76594;BME280;65482;50.240;14.302;2024-01-30T12:47:34;101283.13;;;2.08;67.53
76594;BME280;65482;50.240;14.302;2024-01-30T12:50:00;101279.22;;;1.98;67.93
76594;BME280;65482;50.240;14.302;2024-01-30T12:52:26;101279.44;;;2.14;67.39
76594;BME280;65482;50.240;14.302;2024-01-30T12:54:53;101279.69;;;2.08;67.48
76594;BME280;65482;50.240;14.302;2024-01-30T12:57:19;101273.50;;;2.10;67.57
76594;BME280;65482;50.240;14.302;2024-01-30T12:59:48;101275.16;;;1.91;67.29
76594;BME280;65482;50.240;14.302;2024-01-30T13:02:14;101279.97;;;1.79;67.97
76594;BME280;65482;50.240;14.302;2024-01-30T13:04:40;101282.13;;;1.68;68.56
76594;BME280;65482;50.240;14.302;2024-01-30T13:07:06;101284.38;;;1.55;68.81
76594;BME280;65482;50.240;14.302;2024-01-30T13:09:32;101283.00;;;1.45;68.78